Charter Quote
Worldwide +44-20-3874-8091 Call
Select Language Lang
SAFETY RELIABILITY EXPERIENCE

Gilze Rijen Airport (EHGR) - Jet Charter Services

AIRPORT INFORMATION
ICAOEHGR
IATAGLZ
LOCATIONGilze Rijen, Netherlands
FACILITY TYPEAIRPORT
Runway Length (ft) Width (ft) Surface Type Elevation (ft)
28/10 9118 148 ASP 48.98361
20/02 6549 98 ASP 48.98361

At Paramount Business Jets you can hire chartered private jets to and from Gilze Rijen Airport with as little as 4 hours of notice. All flights booked via Paramount Business Jets are operated by certified direct air carriers that meet and exceed the FAA part 135 and 121 protocol or a foreign equivalent safety authority. Furthermore, Paramount Business Jets subscribes to ARGUS for their third party safety checks of operators, aircraft, and crews prior each and every flight to and from Gilze Rijen Airport and worldwide.

  • Quote a trip using Gilze Rijen Airport or call us 24/7 - 365 days a year at +44-20-3874-8091.
Questions? Call +44-20-3874-8091

METAR Weather Data at Gilze Rijen Airport, EHGR, GLZ

STATIONEHGR
OBSERVEDWed May 22, 08:25 UTC
NOWWed May 22, 08:37 UTC
AGE12 min ago
WINDvaries at 3 mph
VISIBILITY16 miles
CLOUDSscattered clouds
TEMP59°F (15°C)
DEWPT46°F (8°C)
HUMIDITY63%
BAROMETER1019 hPa (30.09 in Hg)
METAREHGR 220825Z AUTO VRB03KT 9999 SCT340 15/08 Q1019 BLU 31003KT 9999 FEW020

Call us on +44-20-3874-8091 (24 Hours) to Hire a Private Jet or Get a Quick Quote.

Find Airports Near any Location

Processing
...